Time;durP1;ratioP1;P1;durP2;ratioP2;P2;SDS_P1;SDS_P2;PMS_P1;PMS_P2;Temp;Humidity;BMP_temperature;BMP_pressure;BME280_temperature;BME280_humidity;BME280_pressure;Samples;Min_cycle;Max_cycle;Signal;HPM_P1;HPM_P2
2023/05/11 00:02:08;;;;;;;;;;;;;;;;;;5094009;28;19908;-68
2023/05/11 00:04:34;;;;;;;;;;;;;;;;;;5096080;28;19914;-67
2023/05/11 00:07:00;;;;;;;;;;;;;;;;;;5095570;28;20024;-68
2023/05/11 00:09:26;;;;;;;;;;;;;;;;;;5093809;28;19915;-68
2023/05/11 00:11:52;;;;;;;;;;;;;;;;;;5095634;28;19912;-68
2023/05/11 00:14:18;;;;;;;;;;;;;;;;;;5095517;28;20364;-68
2023/05/11 00:16:44;;;;;;;;;;;;;;;;;;5093755;28;19915;-68
2023/05/11 00:19:10;;;;;;;;;;;;;;;;;;5095423;28;20014;-68
2023/05/11 00:21:36;;;;;;;;;;;;;;;;;;5093954;28;19912;-68
2023/05/11 00:24:02;;;;;;;;;;;;;;;;;;5095418;28;20023;-68
2023/05/11 00:26:28;;;;;;;;;;;;;;;;;;5095436;28;19916;-68
2023/05/11 00:28:54;;;;;;;;;;;;;;;;;;5093950;28;19912;-68
2023/05/11 00:31:20;;;;;;;;;;;;;;;;;;5093432;28;19912;-66
2023/05/11 00:33:46;;;;;;;;;;;;;;;;;;5093777;28;19908;-67
2023/05/11 00:36:12;;;;;;;;;;;;;;;;;;5095178;28;19908;-68
2023/05/11 00:38:41;;;;;;;;;;;;;;;;;;5093257;28;20257;-68
2023/05/11 00:41:07;;;;;;;;;;;;;;;;;;5094882;28;20360;-68
2023/05/11 00:43:33;;;;;;;;;;;;;;;;;;5095374;28;19961;-68
2023/05/11 00:45:59;;;;;;;;;;;;;;;;;;5092941;28;19931;-68
2023/05/11 00:48:25;;;;;;;;;;;;;;;;;;5094803;28;19994;-68
2023/05/11 00:50:51;;;;;;;;;;;;;;;;;;5093128;28;20417;-68
2023/05/11 00:53:17;;;;;;;;;;;;;;;;;;5094706;28;20295;-68
2023/05/11 00:55:43;;;;;;;;;;;;;;;;;;5094218;28;20382;-68
2023/05/11 00:58:09;;;;;;;;;;;;;;;;;;5094680;28;19908;-68
2023/05/11 01:00:36;;;;;;;;;;;;;;;;;;5093380;28;19912;-68
2023/05/11 01:03:02;;;;;;;;;;;;;;;;;;5094727;28;19908;-68
2023/05/11 01:05:28;;;;;;;;;;;;;;;;;;5094030;28;19969;-68
2023/05/11 01:07:54;;;;;;;;;;;;;;;;;;5094750;28;20003;-68
2023/05/11 01:10:20;;;;;;;;;;;;;;;;;;5094501;28;19934;-68
2023/05/11 01:12:46;;;;;;;;;;;;;;;;;;5094024;28;19999;-68
2023/05/11 01:15:12;;;;;;;;;;;;;;;;;;5093009;28;19915;-68
2023/05/11 01:17:38;;;;;;;;;;;;;;;;;;5094229;28;19912;-68
2023/05/11 01:20:04;;;;;;;;;;;;;;;;;;5094196;28;19908;-66
2023/05/11 01:22:30;;;;;;;;;;;;;;;;;;5092925;28;19931;-66
2023/05/11 01:24:56;;;;;;;;;;;;;;;;;;5094137;28;19912;-66
2023/05/11 01:27:22;;;;;;;;;;;;;;;;;;5093796;28;20393;-66
2023/05/11 01:29:48;;;;;;;;;;;;;;;;;;5094088;28;19920;-67
2023/05/11 01:32:14;;;;;;;;;;;;;;;;;;5094121;28;19908;-67
2023/05/11 01:34:41;;;;;;;;;;;;;;;;;;5093722;28;19912;-67
2023/05/11 01:37:07;;;;;;;;;;;;;;;;;;5094097;28;19908;-67
2023/05/11 01:39:33;;;;;;;;;;;;;;;;;;5094031;28;20377;-67
2023/05/11 01:41:59;;;;;;;;;;;;;;;;;;5093703;28;19915;-67
2023/05/11 01:44:25;;;;;;;;;;;;;;;;;;5094089;28;19908;-67
2023/05/11 01:46:51;;;;;;;;;;;;;;;;;;5093894;28;19927;-67
2023/05/11 01:49:17;;;;;;;;;;;;;;;;;;5092262;28;19908;-67
2023/05/11 01:51:43;;;;;;;;;;;;;;;;;;5093964;28;20002;-67
2023/05/11 01:54:09;;;;;;;;;;;;;;;;;;5092366;28;19912;-67
2023/05/11 01:56:35;;;;;;;;;;;;;;;;;;5093857;28;20309;-67
2023/05/11 01:59:01;;;;;;;;;;;;;;;;;;5093815;28;19999;-67
2023/05/11 02:01:26;;;;;;;;;;;;;;;;;;5093687;28;19909;-67
2023/05/11 02:03:52;;;;;;;;;;;;;;;;;;5093890;28;20352;-67
2023/05/11 02:06:18;;;;;;;;;;;;;;;;;;5093808;28;19920;-67
2023/05/11 02:08:44;;;;;;;;;;;;;;;;;;5096157;28;19908;-67
2023/05/11 02:11:10;;;;;;;;;;;;;;;;;;5098088;28;20364;-67
2023/05/11 02:13:36;;;;;;;;;;;;;;;;;;5097843;28;19908;-67
2023/05/11 02:16:02;;;;;;;;;;;;;;;;;;5097377;28;19915;-67
2023/05/11 02:18:28;;;;;;;;;;;;;;;;;;5097746;28;19912;-67
2023/05/11 02:20:54;;;;;;;;;;;;;;;;;;5097809;28;19991;-67
2023/05/11 02:23:20;;;;;;;;;;;;;;;;;;5097567;28;19908;-67
2023/05/11 02:25:46;;;;;;;;;;;;;;;;;;5096262;28;20364;-67
2023/05/11 02:28:12;;;;;;;;;;;;;;;;;;5096239;28;19952;-67
2023/05/11 02:30:38;;;;;;;;;;;;;;;;;;5097059;28;20395;-67
2023/05/11 02:33:04;;;;;;;;;;;;;;;;;;5097388;28;19931;-67
2023/05/11 02:35:30;;;;;;;;;;;;;;;;;;5097355;28;19908;-67
2023/05/11 02:37:56;;;;;;;;;;;;;;;;;;5097128;28;19908;-67
2023/05/11 02:40:22;;;;;;;;;;;;;;;;;;5097321;28;19915;-67
2023/05/11 02:42:48;;;;;;;;;;;;;;;;;;5095910;28;20352;-67
2023/05/11 02:45:15;;;;;;;;;;;;;;;;;;5096588;28;19920;-67
2023/05/11 02:47:41;;;;;;;;;;;;;;;;;;5097097;28;19908;-67
2023/05/11 02:50:07;;;;;;;;;;;;;;;;;;5095832;28;20002;-67
2023/05/11 02:52:33;;;;;;;;;;;;;;;;;;5096653;28;19951;-67
2023/05/11 02:54:59;;;;;;;;;;;;;;;;;;5097038;28;19908;-67
2023/05/11 02:57:25;;;;;;;;;;;;;;;;;;5095294;28;19913;-67
2023/05/11 02:59:51;;;;;;;;;;;;;;;;;;5095589;28;20284;-67
2023/05/11 03:02:17;;;;;;;;;;;;;;;;;;5096841;28;19912;-67
2023/05/11 03:04:43;;;;;;;;;;;;;;;;;;5096376;28;19916;-67
2023/05/11 03:07:09;;;;;;;;;;;;;;;;;;5096848;28;20006;-67
2023/05/11 03:09:35;;;;;;;;;;;;;;;;;;5095488;28;20261;-67
2023/05/11 03:12:01;;;;;;;;;;;;;;;;;;5095031;28;19915;-67
2023/05/11 03:14:27;;;;;;;;;;;;;;;;;;5096670;28;19969;-67
2023/05/11 03:16:53;;;;;;;;;;;;;;;;;;5095276;28;20364;-67
2023/05/11 03:19:19;;;;;;;;;;;;;;;;;;5095853;28;19919;-67
2023/05/11 03:21:45;;;;;;;;;;;;;;;;;;5096562;28;19908;-67
2023/05/11 03:24:11;;;;;;;;;;;;;;;;;;5096484;28;19995;-67
2023/05/11 03:26:37;;;;;;;;;;;;;;;;;;5096176;28;19922;-67
2023/05/11 03:29:03;;;;;;;;;;;;;;;;;;5096443;28;20416;-67
2023/05/11 03:31:29;;;;;;;;;;;;;;;;;;5096324;28;19912;-67
2023/05/11 03:33:55;;;;;;;;;;;;;;;;;;5095971;28;19909;-67
2023/05/11 03:36:21;;;;;;;;;;;;;;;;;;5096171;28;20023;-67
2023/05/11 03:38:47;;;;;;;;;;;;;;;;;;5096156;28;19915;-67
2023/05/11 03:41:12;;;;;;;;;;;;;;;;;;5095809;28;20013;-67
2023/05/11 03:43:39;;;;;;;;;;;;;;;;;;5096422;28;19912;-67
2023/05/11 03:46:05;;;;;;;;;;;;;;;;;;5095803;28;20313;-67
2023/05/11 03:48:31;;;;;;;;;;;;;;;;;;5094322;28;19908;-67
2023/05/11 03:50:57;;;;;;;;;;;;;;;;;;5094667;28;19915;-67
2023/05/11 03:53:23;;;;;;;;;;;;;;;;;;5094604;28;19908;-67
2023/05/11 03:55:51;;;;;;;;;;;;;;;;;;5095500;28;19915;-67
2023/05/11 03:58:17;;;;;;;;;;;;;;;;;;5096167;28;19916;-67
2023/05/11 04:00:43;;;;;;;;;;;;;;;;;;5095321;28;20256;-68
2023/05/11 04:03:09;;;;;;;;;;;;;;;;;;5095706;28;19912;-67
2023/05/11 04:05:35;;;;;;;;;;;;;;;;;;5095728;28;19920;-67
2023/05/11 04:08:01;;;;;;;;;;;;;;;;;;5095269;28;19954;-67
2023/05/11 04:10:27;;;;;;;;;;;;;;;;;;5095318;28;19947;-67
2023/05/11 04:12:53;;;;;;;;;;;;;;;;;;5094683;28;19908;-67
2023/05/11 04:15:19;;;;;;;;;;;;;;;;;;5094471;28;19908;-67
2023/05/11 04:17:45;;;;;;;;;;;;;;;;;;5093255;28;20420;-67
2023/05/11 04:20:11;;;;;;;;;;;;;;;;;;5095390;28;19908;-67
2023/05/11 04:22:37;;;;;;;;;;;;;;;;;;5093627;28;19908;-67
2023/05/11 04:25:03;;;;;;;;;;;;;;;;;;5095161;28;19913;-67
2023/05/11 04:27:29;;;;;;;;;;;;;;;;;;5094001;28;19912;-67
2023/05/11 04:29:55;;;;;;;;;;;;;;;;;;5092694;28;19912;-67
2023/05/11 04:32:22;;;;;;;;;;;;;;;;;;5093861;28;19908;-67
2023/05/11 04:34:48;;;;;;;;;;;;;;;;;;5093891;28;19908;-67
2023/05/11 04:37:14;;;;;;;;;;;;;;;;;;5094639;28;20006;-67
2023/05/11 04:39:40;;;;;;;;;;;;;;;;;;5094782;28;19961;-68
2023/05/11 04:42:07;;;;;;;;;;;;;;;;;;5095083;28;19912;-68
2023/05/11 04:44:33;;;;;;;;;;;;;;;;;;5093535;28;19908;-68
2023/05/11 04:46:59;;;;;;;;;;;;;;;;;;5094176;28;19961;-68
2023/05/11 04:49:25;;;;;;;;;;;;;;;;;;5092737;28;19947;-68
2023/05/11 04:51:51;;;;;;;;;;;;;;;;;;5092530;28;19920;-67
2023/05/11 04:54:17;;;;;;;;;;;;;;;;;;5093566;28;19909;-68
2023/05/11 04:56:43;;;;;;;;;;;;;;;;;;5093657;28;20261;-68
2023/05/11 04:59:09;;;;;;;;;;;;;;;;;;5092145;28;19953;-68
2023/05/11 05:01:35;;;;;;;;;;;;;;;;;;5092561;28;20324;-67
2023/05/11 05:04:01;;;;;;;;;;;;;;;;;;5092009;28;19988;-67
2023/05/11 05:06:27;;;;;;;;;;;;;;;;;;5091701;28;20287;-67
2023/05/11 05:08:53;;;;;;;;;;;;;;;;;;5093838;28;19915;-67
2023/05/11 05:11:20;;;;;;;;;;;;;;;;;;5107462;28;19908;-63
2023/05/11 05:13:46;;;;;;;;;;;;;;;;;;5098644;28;20384;-63
2023/05/11 05:16:12;;;;;;;;;;;;;;;;;;5092054;28;19908;-64
2023/05/11 05:18:38;;;;;;;;;;;;;;;;;;5092673;28;20292;-63
2023/05/11 05:21:04;;;;;;;;;;;;;;;;;;5091717;28;19908;-63
2023/05/11 05:23:30;;;;;;;;;;;;;;;;;;5091669;28;19908;-63
2023/05/11 05:25:56;;;;;;;;;;;;;;;;;;5092591;28;20295;-67
2023/05/11 05:28:22;;;;;;;;;;;;;;;;;;5092089;28;19908;-66
2023/05/11 05:30:48;;;;;;;;;;;;;;;;;;5098994;28;19958;-67
2023/05/11 05:33:14;;;;;;;;;;;;;;;;;;5098146;28;19912;-66
2023/05/11 05:35:42;;;;;;;;;;;;;;;;;;5112910;28;19952;-68
2023/05/11 05:38:08;;;;;;;;;;;;;;;;;;5092958;28;20269;-68
2023/05/11 05:40:36;;;;;;;;;;;;;;;;;;5080679;28;19923;-70
2023/05/11 05:43:05;;;;;;;;;;;;;;;;;;5086576;28;19912;-67
2023/05/11 05:45:31;;;;;;;;;;;;;;;;;;5088808;28;19924;-68
2023/05/11 05:47:59;;;;;;;;;;;;;;;;;;5088316;28;19909;-67
2023/05/11 05:50:25;;;;;;;;;;;;;;;;;;5088257;28;20360;-67
2023/05/11 05:52:51;;;;;;;;;;;;;;;;;;5088272;28;19976;-66
2023/05/11 05:55:17;;;;;;;;;;;;;;;;;;5089200;28;19936;-66
2023/05/11 05:57:43;;;;;;;;;;;;;;;;;;5088355;28;19908;-67
2023/05/11 06:00:09;;;;;;;;;;;;;;;;;;5089795;28;19919;-71
2023/05/11 06:02:35;;;;;;;;;;;;;;;;;;5090756;28;19912;-66
2023/05/11 06:05:01;;;;;;;;;;;;;;;;;;5092550;28;19969;-68
2023/05/11 06:07:27;;;;;;;;;;;;;;;;;;5089961;28;19916;-68
2023/05/11 06:09:53;;;;;;;;;;;;;;;;;;5088557;28;19940;-68
2023/05/11 06:12:19;;;;;;;;;;;;;;;;;;5087098;28;19912;-67
2023/05/11 06:14:45;;;;;;;;;;;;;;;;;;5088205;28;20020;-67
2023/05/11 06:17:11;;;;;;;;;;;;;;;;;;5099028;28;19912;-68
2023/05/11 06:19:37;;;;;;;;;;;;;;;;;;5090655;28;19915;-66
2023/05/11 06:22:03;;;;;;;;;;;;;;;;;;5111955;28;20434;-67
2023/05/11 06:24:29;;;;;;;;;;;;;;;;;;5111621;28;19915;-67
2023/05/11 06:26:55;;;;;;;;;;;;;;;;;;5077019;28;19924;-68
2023/05/11 06:29:23;;;;;;;;;;;;;;;;;;5073175;28;19915;-65
2023/05/11 06:31:51;;;;;;;;;;;;;;;;;;5085284;28;19977;-65
2023/05/11 06:34:18;;;;;;;;;;;;;;;;;;5089393;28;19916;-67
2023/05/11 06:36:44;;;;;;;;;;;;;;;;;;5103057;28;19911;-67
2023/05/11 06:39:10;;;;;;;;;;;;;;;;;;5090819;28;19969;-67
2023/05/11 06:41:36;;;;;;;;;;;;;;;;;;5088457;28;19962;-67
2023/05/11 06:44:02;;;;;;;;;;;;;;;;;;5074897;28;20383;-66
2023/05/11 06:46:30;;;;;;;;;;;;;;;;;;5089988;28;20538;-66
2023/05/11 06:48:57;;;;;;;;;;;;;;;;;;5088100;28;20002;-66
2023/05/11 06:51:23;;;;;;;;;;;;;;;;;;5086874;28;20360;-67
2023/05/11 06:53:49;;;;;;;;;;;;;;;;;;5088484;28;20344;-67
2023/05/11 06:56:16;;;;;;;;;;;;;;;;;;5093104;28;19912;-66
2023/05/11 06:58:47;;;;;;;;;;;;;;;;;;5087349;28;19974;-68
2023/05/11 07:01:13;;;;;;;;;;;;;;;;;;5089792;28;19912;-66
2023/05/11 07:03:39;;;;;;;;;;;;;;;;;;5089576;28;20406;-66
2023/05/11 07:06:05;;;;;;;;;;;;;;;;;;5091612;28;19920;-66
2023/05/11 07:08:32;;;;;;;;;;;;;;;;;;5090110;28;19954;-68
2023/05/11 07:10:58;;;;;;;;;;;;;;;;;;5087125;28;19986;-67
2023/05/11 07:13:24;;;;;;;;;;;;;;;;;;5087907;28;20302;-66
2023/05/11 07:15:50;;;;;;;;;;;;;;;;;;5089444;28;20462;-67
2023/05/11 07:18:16;;;;;;;;;;;;;;;;;;5089444;28;19931;-66
2023/05/11 07:20:43;;;;;;;;;;;;;;;;;;5084092;28;20383;-67
2023/05/11 07:23:09;;;;;;;;;;;;;;;;;;5083003;28;19912;-66
2023/05/11 07:25:35;;;;;;;;;;;;;;;;;;5087421;28;19975;-66
2023/05/11 07:28:02;;;;;;;;;;;;;;;;;;5085156;28;19951;-66
2023/05/11 07:30:29;;;;;;;;;;;;;;;;;;5088763;28;19912;-67
2023/05/11 07:32:56;;;;;;;;;;;;;;;;;;5081330;28;19916;-67
2023/05/11 07:35:22;;;;;;;;;;;;;;;;;;5090185;28;19912;-66
2023/05/11 07:37:48;;;;;;;;;;;;;;;;;;5079512;28;19944;-67
2023/05/11 07:40:14;;;;;;;;;;;;;;;;;;5081282;28;20007;-62
2023/05/11 07:42:40;;;;;;;;;;;;;;;;;;5080978;28;19912;-63
2023/05/11 07:45:06;;;;;;;;;;;;;;;;;;5084509;28;19916;-65
2023/05/11 07:47:32;;;;;;;;;;;;;;;;;;5088741;28;19929;-66
2023/05/11 07:49:58;;;;;;;;;;;;;;;;;;5089969;28;19998;-65
2023/05/11 07:52:24;;;;;;;;;;;;;;;;;;5091054;28;20485;-65
2023/05/11 07:54:50;;;;;;;;;;;;;;;;;;5093145;28;19916;-66
2023/05/11 07:57:16;;;;;;;;;;;;;;;;;;5091302;28;19912;-67
2023/05/11 08:00:48;;;;;;;;;;;;;;;;;;5105063;27;20722;-67
2023/05/11 08:03:14;;;;;;;;;;;;;;;;;;5101751;28;20546;-66
2023/05/11 08:05:40;;;;;;;;;;;;;;;;;;5096267;28;19973;-66
2023/05/11 08:08:06;;;;;;;;;;;;;;;;;;5107090;28;19919;-65
2023/05/11 08:10:32;;;;;;;;;;;;;;;;;;5103298;28;19912;-66
2023/05/11 08:13:47;;;;;;;;;;;;;;;;;;5106015;27;20286;-67
2023/05/11 08:16:15;;;;;;;;;;;;;;;;;;5106375;28;19912;-66
2023/05/11 08:19:34;;;;;;;;;;;;;;;;;;5105112;27;20280;-68
2023/05/11 08:22:00;;;;;;;;;;;;;;;;;;5105911;28;19919;-67
2023/05/11 08:24:31;;;;;;;;;;;;;;;;;;5105855;28;19912;-67
2023/05/11 08:28:45;;;;;;;;;;;;;;;;;;5056926;27;19935;-65
2023/05/11 08:31:13;;;;;;;;;;;;;;;;;;5061609;28;19971;-65
2023/05/11 08:33:39;;;;;;;;;;;;;;;;;;5061556;28;20449;-66
2023/05/11 08:36:05;;;;;;;;;;;;;;;;;;5064324;28;19921;-65
2023/05/11 08:38:31;;;;;;;;;;;;;;;;;;5067290;28;19917;-66
2023/05/11 08:40:57;;;;;;;;;;;;;;;;;;5063000;28;20001;-68
2023/05/11 08:44:37;;;;;;;;;;;;;;;;;;5083435;27;19939;-67
2023/05/11 08:49:26;;;;;;;;;;;;;;;;;;5081978;27;19927;-67
2023/05/11 08:51:52;;;;;;;;;;;;;;;;;;5071668;28;19913;-66
2023/05/11 08:54:18;;;;;;;;;;;;;;;;;;5069403;28;19942;-67
2023/05/11 08:56:43;;;;;;;;;;;;;;;;;;5062720;28;20003;-66
2023/05/11 09:00:01;;;;;;;;;;;;;;;;;;5098409;27;19920;-67
2023/05/11 09:02:39;;;;;;;;;;;;;;;;;;5082519;27;19916;-66
2023/05/11 09:05:55;;;;;;;;;;;;;;;;;;5106796;27;19912;-66
2023/05/11 09:08:21;;;;;;;;;;;;;;;;;;5105171;28;20072;-66
2023/05/11 09:10:47;;;;;;;;;;;;;;;;;;5110722;28;20052;-66
2023/05/11 09:13:13;;;;;;;;;;;;;;;;;;5105910;28;19912;-67
2023/05/11 09:15:39;;;;;;;;;;;;;;;;;;5106350;28;19930;-66
2023/05/11 09:18:05;;;;;;;;;;;;;;;;;;5112901;28;20419;-67
2023/05/11 09:22:00;;;;;;;;;;;;;;;;;;5087672;27;20380;-67
2023/05/11 09:26:11;;;;;;;;;;;;;;;;;;5040590;28;20332;-67
2023/05/11 09:28:37;;;;;;;;;;;;;;;;;;5046481;27;19913;-67
2023/05/11 09:31:03;;;;;;;;;;;;;;;;;;5054433;27;19913;-68
2023/05/11 09:34:28;;;;;;;;;;;;;;;;;;5103722;27;19920;-67
2023/05/11 09:36:55;;;;;;;;;;;;;;;;;;5104722;28;20386;-67
2023/05/11 09:41:52;;;;;;;;;;;;;;;;;;5098661;27;19930;-66
2023/05/11 09:47:51;;;;;;;;;;;;;;;;;;5084189;28;19925;-66
2023/05/11 09:50:17;;;;;;;;;;;;;;;;;;5072291;28;19920;-66
2023/05/11 09:52:43;;;;;;;;;;;;;;;;;;5084966;28;19912;-67
2023/05/11 10:07:10;;;;;;;;;;;;;;;;;;4515161;28;2528983;-67
2023/05/11 10:09:37;;;;;;;;;;;;;;;;;;5059923;28;19939;-66
2023/05/11 10:19:14;;;;;;;;;;;;;;;;;;5088667;27;20299;-66
2023/05/11 10:23:50;;;;;;;;;;;;;;;;;;5127485;27;20797;-65
2023/05/11 10:26:16;;;;;;;;;;;;;;;;;;5128493;28;20282;-64
2023/05/11 10:31:15;;;;;;;;;;;;;;;;;;5088020;27;19923;-65
2023/05/11 10:33:41;;;;;;;;;;;;;;;;;;5075623;28;19995;-66
2023/05/11 10:36:07;;;;;;;;;;;;;;;;;;5069266;28;19974;-65
2023/05/11 10:40:52;;;;;;;;;;;;;;;;;;5176118;27;20378;-66
2023/05/11 10:45:48;;;;;;;;;;;;;;;;;;5066306;28;19923;-63
2023/05/11 10:54:08;;;;;;;;;;;;;;;;;;5085083;27;19923;-64
2023/05/11 10:56:48;;;;;;;;;;;;;;;;;;5085494;27;19942;-64
2023/05/11 10:59:27;;;;;;;;;;;;;;;;;;5087019;27;19923;-66
2023/05/11 11:03:12;;;;;;;;;;;;;;;;;;5088058;28;20384;-64
2023/05/11 11:05:38;;;;;;;;;;;;;;;;;;5087659;28;19947;-65
2023/05/11 11:09:00;;;;;;;;;;;;;;;;;;5087360;27;19919;-64
2023/05/11 11:13:04;;;;;;;;;;;;;;;;;;5088838;27;20268;-64
2023/05/11 11:15:53;;;;;;;;;;;;;;;;;;5086851;28;19939;-64
2023/05/11 11:18:20;;;;;;;;;;;;;;;;;;5088393;28;19919;-65
2023/05/11 11:20:46;;;;;;;;;;;;;;;;;;5086778;28;19915;-64
2023/05/11 11:23:12;;;;;;;;;;;;;;;;;;5085726;28;20318;-63
2023/05/11 11:25:38;;;;;;;;;;;;;;;;;;5087028;28;19909;-64
2023/05/11 11:36:46;;;;;;;;;;;;;;;;;;5089978;27;19938;-65
2023/05/11 11:39:12;;;;;;;;;;;;;;;;;;5090054;28;20432;-64
2023/05/11 11:45:35;;;;;;;;;;;;;;;;;;5090270;28;19923;-65
2023/05/11 11:52:03;;;;;;;;;;;;;;;;;;5088117;27;19923;-64
2023/05/11 11:54:29;;;;;;;;;;;;;;;;;;5086288;28;20457;-65
2023/05/11 11:57:08;;;;;;;;;;;;;;;;;;5088386;27;19923;-66
2023/05/11 12:00:29;;;;;;;;;;;;;;;;;;5089376;27;19916;-64
2023/05/11 12:02:55;;;;;;;;;;;;;;;;;;5090708;28;20382;-65
2023/05/11 12:05:21;;;;;;;;;;;;;;;;;;5090228;28;19909;-67
2023/05/11 12:09:35;;;;;;;;;;;;;;;;;;5090364;28;19923;-65
2023/05/11 12:13:33;;;;;;;;;;;;;;;;;;5090474;27;19922;-65
2023/05/11 12:21:11;;;;;;;;;;;;;;;;;;5090430;28;19916;-65
2023/05/11 12:23:53;;;;;;;;;;;;;;;;;;5087012;27;19918;-66
2023/05/11 12:30:20;;;;;;;;;;;;;;;;;;5090517;27;20405;-66
2023/05/11 12:32:46;;;;;;;;;;;;;;;;;;5090065;28;19922;-65
2023/05/11 12:35:12;;;;;;;;;;;;;;;;;;5090222;28;19909;-65
2023/05/11 12:39:31;;;;;;;;;;;;;;;;;;5090583;27;19913;-65
2023/05/11 12:41:57;;;;;;;;;;;;;;;;;;5090424;28;20292;-65
2023/05/11 12:44:23;;;;;;;;;;;;;;;;;;5089706;28;20371;-65
2023/05/11 12:46:49;;;;;;;;;;;;;;;;;;5089564;28;19912;-65
2023/05/11 12:49:16;;;;;;;;;;;;;;;;;;5087365;28;20011;-65
2023/05/11 12:55:34;;;;;;;;;;;;;;;;;;5089684;28;19943;-64
2023/05/11 12:58:00;;;;;;;;;;;;;;;;;;5089954;28;20364;-68
2023/05/11 13:03:04;;;;;;;;;;;;;;;;;;5151605;27;20317;-69
2023/05/11 13:05:30;;;;;;;;;;;;;;;;;;5150863;27;20386;-70
2023/05/11 13:11:12;;;;;;;;;;;;;;;;;;5088821;27;19916;-68
2023/05/11 13:13:37;;;;;;;;;;;;;;;;;;5088841;28;19913;-69
2023/05/11 13:16:04;;;;;;;;;;;;;;;;;;5087435;28;19978;-69
2023/05/11 13:18:29;;;;;;;;;;;;;;;;;;5088639;28;19908;-69
2023/05/11 13:21:32;;;;;;;;;;;;;;;;;;5088847;27;19916;-68
2023/05/11 13:23:58;;;;;;;;;;;;;;;;;;5089396;28;19916;-69
2023/05/11 13:26:24;;;;;;;;;;;;;;;;;;5090099;28;19909;-69
2023/05/11 13:28:50;;;;;;;;;;;;;;;;;;5090385;28;19912;-69
2023/05/11 13:31:18;;;;;;;;;;;;;;;;;;5088798;28;19943;-70
2023/05/11 13:33:44;;;;;;;;;;;;;;;;;;5090765;28;19909;-69
2023/05/11 13:36:10;;;;;;;;;;;;;;;;;;5090816;28;20007;-69
2023/05/11 13:40:19;;;;;;;;;;;;;;;;;;5091095;27;19912;-68
2023/05/11 13:42:45;;;;;;;;;;;;;;;;;;5090821;28;20007;-69
2023/05/11 13:45:11;;;;;;;;;;;;;;;;;;5090658;28;20352;-69
2023/05/11 13:48:53;;;;;;;;;;;;;;;;;;5112060;27;19916;-69
2023/05/11 13:51:19;;;;;;;;;;;;;;;;;;5109630;28;19937;-69
2023/05/11 13:53:45;;;;;;;;;;;;;;;;;;5111325;28;19947;-69
2023/05/11 13:56:11;;;;;;;;;;;;;;;;;;5111283;28;19926;-69
2023/05/11 13:58:37;;;;;;;;;;;;;;;;;;5110814;28;19991;-70
2023/05/11 14:01:03;;;;;;;;;;;;;;;;;;5111344;28;19908;-69
2023/05/11 14:03:30;;;;;;;;;;;;;;;;;;5111195;28;19914;-69
2023/05/11 14:08:18;;;;;;;;;;;;;;;;;;5070888;28;19917;-69
2023/05/11 14:12:15;;;;;;;;;;;;;;;;;;5091339;27;19916;-71
2023/05/11 14:14:41;;;;;;;;;;;;;;;;;;5091058;28;20347;-69
2023/05/11 14:18:49;;;;;;;;;;;;;;;;;;5090925;27;19942;-68
2023/05/11 14:21:14;;;;;;;;;;;;;;;;;;5091248;28;20003;-68
2023/05/11 14:23:40;;;;;;;;;;;;;;;;;;5090685;28;19954;-69
2023/05/11 14:26:06;;;;;;;;;;;;;;;;;;5090498;28;19916;-69
2023/05/11 14:32:05;;;;;;;;;;;;;;;;;;5091238;27;19916;-68
2023/05/11 14:34:31;;;;;;;;;;;;;;;;;;5090498;28;19990;-69
2023/05/11 14:36:57;;;;;;;;;;;;;;;;;;5090890;28;19965;-69
2023/05/11 14:39:23;;;;;;;;;;;;;;;;;;5090701;28;19908;-69
2023/05/11 14:41:48;;;;;;;;;;;;;;;;;;5090307;28;19908;-69
2023/05/11 14:46:23;;;;;;;;;;;;;;;;;;5173688;27;20002;-70
2023/05/11 14:48:49;;;;;;;;;;;;;;;;;;5172684;27;19911;-70
2023/05/11 14:51:25;;;;;;;;;;;;;;;;;;5091377;27;19916;-69
2023/05/11 14:53:51;;;;;;;;;;;;;;;;;;5090672;28;19999;-68
2023/05/11 14:56:17;;;;;;;;;;;;;;;;;;5090725;28;19909;-69
2023/05/11 14:59:51;;;;;;;;;;;;;;;;;;5090897;27;19923;-68
2023/05/11 15:02:17;;;;;;;;;;;;;;;;;;5090395;28;19954;-68
2023/05/11 15:08:26;;;;;;;;;;;;;;;;;;5090554;27;19927;-69
2023/05/11 15:10:52;;;;;;;;;;;;;;;;;;5090739;28;19995;-68
2023/05/11 15:17:55;;;;;;;;;;;;;;;;;;5090711;27;19912;-68
2023/05/11 15:21:54;;;;;;;;;;;;;;;;;;5091563;27;20364;-68
2023/05/11 15:24:20;;;;;;;;;;;;;;;;;;5090420;28;20006;-71
2023/05/11 15:27:12;;;;;;;;;;;;;;;;;;5091428;28;19912;-69
2023/05/11 15:29:38;;;;;;;;;;;;;;;;;;5090464;28;19913;-71
2023/05/11 15:38:09;;;;;;;;;;;;;;;;;;5090452;27;19923;-68
2023/05/11 15:40:36;;;;;;;;;;;;;;;;;;5090899;28;20350;-69
2023/05/11 15:46:06;;;;;;;;;;;;;;;;;;5131936;27;20331;-68
2023/05/11 15:51:00;;;;;;;;;;;;;;;;;;5090500;27;19923;-70
2023/05/11 15:53:26;;;;;;;;;;;;;;;;;;5090668;28;19913;-69
2023/05/11 15:55:54;;;;;;;;;;;;;;;;;;5090666;28;19908;-69
2023/05/11 15:58:20;;;;;;;;;;;;;;;;;;5090277;28;19913;-70
2023/05/11 16:07:08;;;;;;;;;;;;;;;;;;5090994;27;19916;-70
2023/05/11 16:09:34;;;;;;;;;;;;;;;;;;5090802;28;20010;-69
2023/05/11 16:11:59;;;;;;;;;;;;;;;;;;5090577;28;19908;-70
2023/05/11 16:16:24;;;;;;;;;;;;;;;;;;5090877;27;19919;-70
2023/05/11 16:18:50;;;;;;;;;;;;;;;;;;5090479;28;19924;-70
2023/05/11 16:23:47;;;;;;;;;;;;;;;;;;5070779;28;19917;-69
2023/05/11 16:33:04;;;;;;;;;;;;;;;;;;5091072;27;19917;-71
2023/05/11 16:35:30;;;;;;;;;;;;;;;;;;5091563;28;20026;-70
2023/05/11 16:41:48;;;;;;;;;;;;;;;;;;5091441;28;19938;-70
2023/05/11 16:44:15;;;;;;;;;;;;;;;;;;5091291;28;20431;-69
2023/05/11 16:46:41;;;;;;;;;;;;;;;;;;5091021;28;19985;-69
2023/05/11 16:50:46;;;;;;;;;;;;;;;;;;5091440;27;19917;-71
2023/05/11 16:53:12;;;;;;;;;;;;;;;;;;5091429;28;19912;-68
2023/05/11 16:55:38;;;;;;;;;;;;;;;;;;5090924;28;19991;-69
2023/05/11 16:58:46;;;;;;;;;;;;;;;;;;5091469;28;19916;-69
2023/05/11 17:01:36;;;;;;;;;;;;;;;;;;5091314;28;19916;-69
2023/05/11 17:04:02;;;;;;;;;;;;;;;;;;5091756;28;20360;-69
2023/05/11 17:07:26;;;;;;;;;;;;;;;;;;5091835;27;19923;-69
2023/05/11 17:09:55;;;;;;;;;;;;;;;;;;5090843;28;20350;-70
2023/05/11 17:12:22;;;;;;;;;;;;;;;;;;5091141;28;19908;-69
2023/05/11 17:17:18;;;;;;;;;;;;;;;;;;5091078;28;19916;-68
2023/05/11 17:19:44;;;;;;;;;;;;;;;;;;5091132;28;20411;-71
2023/05/11 17:24:39;;;;;;;;;;;;;;;;;;5091447;27;19916;-67
2023/05/11 17:27:05;;;;;;;;;;;;;;;;;;5091197;28;19913;-68
2023/05/11 17:29:31;;;;;;;;;;;;;;;;;;5090730;28;20002;-68
2023/05/11 17:31:57;;;;;;;;;;;;;;;;;;5091107;28;20425;-69
2023/05/11 17:34:23;;;;;;;;;;;;;;;;;;5091036;28;19962;-69
2023/05/11 17:39:05;;;;;;;;;;;;;;;;;;5091291;28;19926;-68
2023/05/11 17:41:31;;;;;;;;;;;;;;;;;;5091417;28;20003;-68
2023/05/11 17:43:57;;;;;;;;;;;;;;;;;;5090884;28;19954;-68
2023/05/11 17:46:23;;;;;;;;;;;;;;;;;;5091050;28;19938;-69
2023/05/11 17:48:51;;;;;;;;;;;;;;;;;;5089786;28;19908;-68
2023/05/11 17:51:18;;;;;;;;;;;;;;;;;;5089311;28;19932;-69
2023/05/11 17:53:45;;;;;;;;;;;;;;;;;;5090941;28;19969;-68
2023/05/11 17:56:12;;;;;;;;;;;;;;;;;;5090948;28;19908;-68
2023/05/11 17:58:38;;;;;;;;;;;;;;;;;;5090432;28;19924;-69
2023/05/11 18:01:04;;;;;;;;;;;;;;;;;;5090843;28;19908;-69
2023/05/11 18:03:30;;;;;;;;;;;;;;;;;;5090777;28;19912;-69
2023/05/11 18:05:56;;;;;;;;;;;;;;;;;;5090460;28;19908;-69
2023/05/11 18:08:22;;;;;;;;;;;;;;;;;;5090756;28;19908;-69
2023/05/11 18:10:48;;;;;;;;;;;;;;;;;;5090318;28;20012;-69
2023/05/11 18:13:14;;;;;;;;;;;;;;;;;;5090548;28;20357;-69
2023/05/11 18:15:41;;;;;;;;;;;;;;;;;;5090621;28;19926;-69
2023/05/11 18:18:08;;;;;;;;;;;;;;;;;;5090113;28;19920;-69
2023/05/11 18:20:34;;;;;;;;;;;;;;;;;;5090420;28;20427;-70
2023/05/11 18:23:00;;;;;;;;;;;;;;;;;;5090441;28;19936;-70
2023/05/11 18:25:30;;;;;;;;;;;;;;;;;;5088738;28;19909;-69
2023/05/11 18:27:56;;;;;;;;;;;;;;;;;;5090306;28;19961;-69
2023/05/11 18:30:22;;;;;;;;;;;;;;;;;;5090463;28;19961;-69
2023/05/11 18:32:48;;;;;;;;;;;;;;;;;;5089947;28;20007;-70
2023/05/11 18:35:15;;;;;;;;;;;;;;;;;;5088873;28;19915;-70
2023/05/11 18:37:41;;;;;;;;;;;;;;;;;;5098846;28;19924;-70
2023/05/11 18:40:07;;;;;;;;;;;;;;;;;;5110158;28;19915;-70
2023/05/11 18:42:33;;;;;;;;;;;;;;;;;;5110527;28;19908;-70
2023/05/11 18:44:59;;;;;;;;;;;;;;;;;;5110433;28;19915;-70
2023/05/11 18:47:25;;;;;;;;;;;;;;;;;;5110136;28;20253;-70
2023/05/11 18:49:51;;;;;;;;;;;;;;;;;;5099750;28;19991;-69
2023/05/11 18:52:17;;;;;;;;;;;;;;;;;;5096539;28;19908;-69
2023/05/11 18:54:43;;;;;;;;;;;;;;;;;;5078001;28;19912;-69
2023/05/11 18:57:10;;;;;;;;;;;;;;;;;;5096402;28;19912;-69
2023/05/11 18:59:36;;;;;;;;;;;;;;;;;;5096361;28;20013;-69
2023/05/11 19:02:02;;;;;;;;;;;;;;;;;;5095999;28;20329;-70
2023/05/11 19:04:28;;;;;;;;;;;;;;;;;;5078274;28;19915;-70
2023/05/11 19:06:54;;;;;;;;;;;;;;;;;;5096503;28;19908;-69
2023/05/11 19:09:21;;;;;;;;;;;;;;;;;;5096126;28;19995;-69
2023/05/11 19:11:47;;;;;;;;;;;;;;;;;;5096421;28;20368;-69
2023/05/11 19:14:14;;;;;;;;;;;;;;;;;;5096019;28;19915;-69
2023/05/11 19:16:40;;;;;;;;;;;;;;;;;;5096105;28;19908;-69
2023/05/11 19:19:06;;;;;;;;;;;;;;;;;;5096167;28;19912;-69
2023/05/11 19:21:34;;;;;;;;;;;;;;;;;;5095728;28;19908;-69
2023/05/11 19:24:00;;;;;;;;;;;;;;;;;;5096215;28;19911;-68
2023/05/11 19:26:26;;;;;;;;;;;;;;;;;;5096223;28;19915;-68
2023/05/11 19:28:52;;;;;;;;;;;;;;;;;;5095778;28;19912;-69
2023/05/11 19:31:18;;;;;;;;;;;;;;;;;;5095786;28;19908;-69